Time,TemperatureF,DewpointF,PressureIn,WindDirection,WindDirectionDegrees,WindSpeedMPH,WindSpeedGustMPH,Humidity,HourlyPrecipIn,Conditions,Clouds,dailyrainin,SoftwareType,DateUTC
2013-01-11 00:00:00,31.6,28.5,30.18,WSW,257,0.0,0.0,88,0.00,,SKC,0.00,VWS V14.01,2013-01-11 08:00:00,
2013-01-11 00:09:00,31.7,28.8,30.18,WSW,257,0.0,0.0,89,0.00,,SKC,0.00,VWS V14.01,2013-01-11 08:09:00,
2013-01-11 00:14:00,31.6,28.7,30.18,WSW,257,0.0,0.0,89,0.00,,SKC,0.00,VWS V14.01,2013-01-11 08:14:00,
2013-01-11 00:19:00,31.5,28.6,30.18,WSW,257,0.0,0.0,89,0.00,,SKC,0.00,VWS V14.01,2013-01-11 08:19:00,
2013-01-11 00:24:00,31.5,28.6,30.18,WSW,257,0.0,0.0,89,0.00,,SKC,0.00,VWS V14.01,2013-01-11 08:24:00,
2013-01-11 00:29:00,31.6,28.7,30.18,WSW,257,0.0,0.0,89,0.00,,SKC,0.00,VWS V14.01,2013-01-11 08:29:00,
2013-01-11 00:34:00,31.7,28.8,30.17,WSW,257,0.0,0.0,89,0.00,,SKC,0.00,VWS V14.01,2013-01-11 08:34:00,
2013-01-11 00:39:00,31.7,28.8,30.17,WSW,257,0.0,0.0,89,0.00,,SKC,0.00,VWS V14.01,2013-01-11 08:39:00,
2013-01-11 00:44:00,31.6,28.7,30.17,WSW,257,0.0,0.0,89,0.00,,SKC,0.00,VWS V14.01,2013-01-11 08:44:00,
2013-01-11 00:49:00,31.5,28.6,30.17,WSW,257,0.0,0.0,89,0.00,,SKC,0.00,VWS V14.01,2013-01-11 08:49:00,
2013-01-11 00:54:00,31.4,28.5,30.17,WSW,257,0.0,0.0,89,0.00,,SKC,0.00,VWS V14.01,2013-01-11 08:54:00,
2013-01-11 00:59:00,31.5,28.6,30.17,WSW,257,0.0,0.0,89,0.00,,SKC,0.00,VWS V14.01,2013-01-11 08:59:00,
2013-01-11 01:04:00,31.5,28.6,30.17,WSW,257,0.0,0.0,89,0.00,,SKC,0.00,VWS V14.01,2013-01-11 09:04:00,
2013-01-11 01:09:00,31.4,28.5,30.17,WSW,257,0.0,0.0,89,0.00,,SKC,0.00,VWS V14.01,2013-01-11 09:09:00,
2013-01-11 01:14:00,31.5,28.6,30.17,WSW,257,0.0,0.0,89,0.00,,SKC,0.00,VWS V14.01,2013-01-11 09:14:00,
2013-01-11 01:19:00,31.6,28.7,30.17,WSW,257,0.0,0.0,89,0.00,,SKC,0.00,VWS V14.01,2013-01-11 09:19:00,
2013-01-11 01:24:00,31.7,28.8,30.17,WSW,257,0.0,0.0,89,0.00,,SKC,0.00,VWS V14.01,2013-01-11 09:24:00,
2013-01-11 01:29:00,32.1,29.2,30.18,WSW,257,0.0,0.0,89,0.00,,SKC,0.00,VWS V14.01,2013-01-11 09:29:00,
2013-01-11 01:34:00,32.1,29.2,30.18,WSW,257,0.0,0.0,89,0.00,,SKC,0.00,VWS V14.01,2013-01-11 09:34:00,
2013-01-11 01:39:00,32.0,28.9,30.18,WSW,257,0.0,0.0,88,0.00,,SKC,0.00,VWS V14.01,2013-01-11 09:39:00,
2013-01-11 01:44:00,31.9,29.0,30.18,WSW,257,0.0,0.0,89,0.00,,SKC,0.00,VWS V14.01,2013-01-11 09:44:00,
2013-01-11 01:49:00,31.9,29.0,30.17,WSW,257,0.0,0.0,89,0.00,,SKC,0.00,VWS V14.01,2013-01-11 09:49:00,
2013-01-11 01:54:00,31.8,28.9,30.17,WSW,257,0.0,0.0,89,0.00,,SKC,0.00,VWS V14.01,2013-01-11 09:54:00,
2013-01-11 01:59:00,31.7,28.8,30.18,WSW,257,0.0,0.0,89,0.00,,SKC,0.00,VWS V14.01,2013-01-11 09:59:00,
2013-01-11 02:04:00,31.6,28.7,30.18,WSW,257,0.0,0.0,89,0.00,,SKC,0.00,VWS V14.01,2013-01-11 10:04:00,
2013-01-11 02:09:00,31.7,28.8,30.18,WSW,257,0.0,0.0,89,0.00,,SKC,0.00,VWS V14.01,2013-01-11 10:09:00,
2013-01-11 02:14:00,31.9,29.0,30.18,WSW,257,0.0,0.0,89,0.00,,SKC,0.00,VWS V14.01,2013-01-11 10:14:00,
2013-01-11 02:19:00,31.9,29.0,30.18,WSW,256,0.0,0.0,89,0.00,,SKC,0.00,VWS V14.01,2013-01-11 10:19:00,
2013-01-11 02:24:00,31.7,28.6,30.17,WSW,257,0.0,0.0,88,0.00,,SKC,0.00,VWS V14.01,2013-01-11 10:24:00,
2013-01-11 02:29:00,31.6,28.5,30.18,WSW,257,0.0,0.0,88,0.00,,SKC,0.00,VWS V14.01,2013-01-11 10:29:00,
2013-01-11 02:34:00,31.5,28.4,30.18,WSW,257,0.0,0.0,88,0.00,,SKC,0.00,VWS V14.01,2013-01-11 10:34:00,
2013-01-11 02:39:00,31.4,28.3,30.18,WSW,257,0.0,0.0,88,0.00,,SKC,0.00,VWS V14.01,2013-01-11 10:39:00,
2013-01-11 02:44:00,31.1,28.0,30.18,WSW,257,0.0,0.0,88,0.00,,SKC,0.00,VWS V14.01,2013-01-11 10:44:00,
2013-01-11 02:49:00,30.8,27.7,30.18,WSW,257,0.0,0.0,88,0.00,,SKC,0.00,VWS V14.01,2013-01-11 10:49:00,
2013-01-11 02:54:00,30.7,27.9,30.18,WSW,257,0.0,0.0,89,0.00,,SKC,0.00,VWS V14.01,2013-01-11 10:54:00,
2013-01-11 02:59:00,30.7,27.9,30.18,WSW,257,0.0,0.0,89,0.00,,SKC,0.00,VWS V14.01,2013-01-11 10:59:00,
2013-01-11 03:09:00,30.5,27.6,30.18,WSW,257,0.0,0.0,89,0.00,,SKC,0.00,VWS V14.01,2013-01-11 11:09:00,
2013-01-11 03:14:00,30.4,27.5,30.18,WSW,257,0.0,0.0,89,0.00,,SKC,0.00,VWS V14.01,2013-01-11 11:14:00,
2013-01-11 03:19:00,30.3,27.5,30.18,WSW,257,0.0,0.0,89,0.00,,SKC,0.00,VWS V14.01,2013-01-11 11:19:00,
2013-01-11 03:24:00,30.3,27.5,30.18,WSW,257,0.0,0.0,89,0.00,,SKC,0.00,VWS V14.01,2013-01-11 11:24:00,
2013-01-11 03:29:00,30.2,27.4,30.18,WSW,257,0.0,0.0,89,0.00,,SKC,0.00,VWS V14.01,2013-01-11 11:29:00,
2013-01-11 03:34:00,30.1,27.3,30.18,WSW,257,0.0,0.0,89,0.00,,SKC,0.00,VWS V14.01,2013-01-11 11:34:00,
2013-01-11 03:39:00,30.0,27.2,30.18,WSW,257,0.0,0.0,89,0.00,,SKC,0.00,VWS V14.01,2013-01-11 11:39:00,
2013-01-11 03:44:00,29.9,27.3,30.19,WSW,257,0.0,0.0,90,0.00,,SKC,0.00,VWS V14.01,2013-01-11 11:44:00,
2013-01-11 03:49:00,30.0,27.4,30.19,WSW,257,0.0,0.0,90,0.00,,SKC,0.00,VWS V14.01,2013-01-11 11:49:00,
2013-01-11 03:54:00,29.9,27.3,30.19,WSW,257,0.0,0.0,90,0.00,,SKC,0.00,VWS V14.01,2013-01-11 11:54:00,
2013-01-11 03:59:00,29.8,27.2,30.19,WSW,257,0.0,0.0,90,0.00,,SKC,0.00,VWS V14.01,2013-01-11 11:59:00,
2013-01-11 04:04:00,29.8,27.2,30.19,WSW,257,0.0,0.0,90,0.00,,SKC,0.00,VWS V14.01,2013-01-11 12:04:00,
2013-01-11 04:09:00,29.9,27.3,30.19,WSW,257,0.0,0.0,90,0.00,,SKC,0.00,VWS V14.01,2013-01-11 12:09:00,
2013-01-11 04:14:00,29.8,27.2,30.19,WSW,257,0.0,0.0,90,0.00,,SKC,0.00,VWS V14.01,2013-01-11 12:14:00,
2013-01-11 04:24:00,29.8,27.2,30.18,WSW,257,0.0,0.0,90,0.00,,SKC,0.00,VWS V14.01,2013-01-11 12:24:00,
2013-01-11 04:29:00,29.9,27.3,30.19,WSW,257,0.0,0.0,90,0.00,,SKC,0.00,VWS V14.01,2013-01-11 12:29:00,
2013-01-11 04:34:00,29.9,27.6,30.19,WSW,257,0.0,0.0,91,0.00,,SKC,0.00,VWS V14.01,2013-01-11 12:34:00,
2013-01-11 04:39:00,30.0,27.4,30.19,WSW,257,0.0,0.0,90,0.00,,SKC,0.00,VWS V14.01,2013-01-11 12:39:00,
2013-01-11 04:44:00,30.1,27.5,30.19,WSW,257,0.0,0.0,90,0.00,,SKC,0.00,VWS V14.01,2013-01-11 12:44:00,
2013-01-11 04:49:00,30.0,27.4,30.19,WSW,257,0.0,0.0,90,0.00,,SKC,0.00,VWS V14.01,2013-01-11 12:49:00,
2013-01-11 04:54:00,29.9,27.3,30.19,WSW,257,0.0,0.0,90,0.00,,SKC,0.00,VWS V14.01,2013-01-11 12:54:00,
2013-01-11 04:59:00,29.8,27.2,30.19,WSW,257,0.0,0.0,90,0.00,,SKC,0.00,VWS V14.01,2013-01-11 12:59:00,
2013-01-11 05:04:00,29.6,27.0,30.20,WSW,257,0.0,0.0,90,0.00,,SKC,0.00,VWS V14.01,2013-01-11 13:04:00,
2013-01-11 05:09:00,29.6,27.0,30.20,WSW,257,0.0,0.0,90,0.00,,SKC,0.00,VWS V14.01,2013-01-11 13:09:00,
2013-01-11 05:14:00,29.4,26.8,30.20,WSW,257,0.0,0.0,90,0.00,,SKC,0.00,VWS V14.01,2013-01-11 13:14:00,
2013-01-11 05:19:00,29.3,26.7,30.20,WSW,257,0.0,0.0,90,0.00,,SKC,0.00,VWS V14.01,2013-01-11 13:19:00,
2013-01-11 05:24:00,29.3,26.7,30.20,WSW,257,0.0,0.0,90,0.00,,SKC,0.00,VWS V14.01,2013-01-11 13:24:00,
2013-01-11 05:29:00,29.2,26.6,30.21,WSW,257,0.0,0.0,90,0.00,,SKC,0.00,VWS V14.01,2013-01-11 13:29:00,
2013-01-11 05:34:00,29.3,26.7,30.21,WSW,257,0.0,0.0,90,0.00,,SKC,0.00,VWS V14.01,2013-01-11 13:34:00,
2013-01-11 05:39:00,29.2,26.6,30.21,WSW,257,0.0,0.0,90,0.00,,SKC,0.00,VWS V14.01,2013-01-11 13:39:00,
2013-01-11 05:44:00,29.1,26.5,30.21,WSW,257,0.0,0.0,90,0.00,,SKC,0.00,VWS V14.01,2013-01-11 13:44:00,
2013-01-11 05:49:00,29.1,26.8,30.22,WSW,257,0.0,0.0,91,0.00,,SKC,0.00,VWS V14.01,2013-01-11 13:49:00,
2013-01-11 05:54:00,29.1,26.8,30.21,WSW,257,0.0,0.0,91,0.00,,SKC,0.00,VWS V14.01,2013-01-11 13:54:00,
2013-01-11 05:59:00,29.0,26.7,30.22,WSW,257,0.0,0.0,91,0.00,,SKC,0.00,VWS V14.01,2013-01-11 13:59:00,
2013-01-11 06:04:00,29.1,26.8,30.22,WSW,257,0.0,0.0,91,0.00,,SKC,0.00,VWS V14.01,2013-01-11 14:04:00,
2013-01-11 06:09:00,29.2,26.9,30.22,WSW,257,0.0,0.0,91,0.00,,SKC,0.00,VWS V14.01,2013-01-11 14:09:00,
2013-01-11 06:14:00,29.2,26.9,30.22,WSW,257,0.0,0.0,91,0.00,,SKC,0.00,VWS V14.01,2013-01-11 14:14:00,
2013-01-11 06:19:00,29.2,26.9,30.22,WSW,257,0.0,0.0,91,0.00,,SKC,0.00,VWS V14.01,2013-01-11 14:19:00,
2013-01-11 06:24:00,29.2,26.9,30.22,WSW,257,0.0,0.0,91,0.00,,SKC,0.00,VWS V14.01,2013-01-11 14:24:00,
2013-01-11 06:29:00,29.2,26.9,30.22,WSW,257,0.0,0.0,91,0.00,,SKC,0.00,VWS V14.01,2013-01-11 14:29:00,
2013-01-11 06:34:00,29.0,26.7,30.22,WSW,257,0.0,0.0,91,0.00,,SKC,0.00,VWS V14.01,2013-01-11 14:34:00,
2013-01-11 06:39:00,29.1,26.8,30.23,WSW,257,0.0,0.0,91,0.00,,SKC,0.00,VWS V14.01,2013-01-11 14:39:00,
2013-01-11 06:44:00,29.2,26.9,30.23,WSW,257,0.0,0.0,91,0.00,,SKC,0.00,VWS V14.01,2013-01-11 14:44:00,
2013-01-11 06:49:00,29.1,26.8,30.23,WSW,257,0.0,0.0,91,0.00,,SKC,0.00,VWS V14.01,2013-01-11 14:49:00,
2013-01-11 06:54:00,29.1,26.8,30.23,WSW,257,0.0,0.0,91,0.00,,SKC,0.00,VWS V14.01,2013-01-11 14:54:00,
2013-01-11 06:59:00,29.2,26.9,30.23,WSW,257,0.0,0.0,91,0.00,,SKC,0.00,VWS V14.01,2013-01-11 14:59:00,
2013-01-11 07:04:00,29.2,26.9,30.23,WSW,257,0.0,0.0,91,0.00,,SKC,0.00,VWS V14.01,2013-01-11 15:04:00,
2013-01-11 07:09:00,29.1,26.8,30.23,WSW,257,0.0,0.0,91,0.00,,SKC,0.00,VWS V14.01,2013-01-11 15:09:00,
2013-01-11 07:14:00,29.0,26.7,30.23,WSW,257,0.0,0.0,91,0.00,,SKC,0.00,VWS V14.01,2013-01-11 15:14:00,
2013-01-11 07:19:00,29.0,26.7,30.23,WSW,257,0.0,0.0,91,0.00,,SKC,0.00,VWS V14.01,2013-01-11 15:19:00,
2013-01-11 07:24:00,29.0,26.7,30.23,WSW,257,0.0,0.0,91,0.00,,SKC,0.00,VWS V14.01,2013-01-11 15:24:00,
2013-01-11 07:29:00,28.9,26.6,30.23,WSW,257,0.0,0.0,91,0.00,,SKC,0.00,VWS V14.01,2013-01-11 15:29:00,
2013-01-11 07:34:00,28.9,26.6,30.23,WSW,257,0.0,0.0,91,0.00,,SKC,0.00,VWS V14.01,2013-01-11 15:34:00,
2013-01-11 07:39:00,28.9,26.6,30.23,WSW,257,0.0,0.0,91,0.00,,SKC,0.00,VWS V14.01,2013-01-11 15:39:00,
2013-01-11 07:44:00,29.0,26.7,30.24,WSW,257,0.0,0.0,91,0.00,,SKC,0.00,VWS V14.01,2013-01-11 15:44:00,
2013-01-11 07:49:00,29.1,26.8,30.23,WSW,257,0.0,0.0,91,0.00,,SKC,0.00,VWS V14.01,2013-01-11 15:49:00,
2013-01-11 07:54:00,29.2,26.9,30.23,WSW,257,0.0,0.0,91,0.00,,SKC,0.00,VWS V14.01,2013-01-11 15:54:00,
2013-01-11 07:59:00,29.4,27.1,30.24,WSW,257,0.0,0.0,91,0.00,,SKC,0.00,VWS V14.01,2013-01-11 15:59:00,
2013-01-11 08:04:00,29.6,27.3,30.24,WSW,257,0.0,0.0,91,0.00,,SKC,0.00,VWS V14.01,2013-01-11 16:04:00,
2013-01-11 08:09:00,29.9,27.6,30.24,WSW,257,0.0,1.0,91,0.00,,SKC,0.00,VWS V14.01,2013-01-11 16:09:00,
2013-01-11 08:14:00,30.3,28.0,30.24,WSW,257,0.0,0.0,91,0.00,,SKC,0.00,VWS V14.01,2013-01-11 16:14:00,
2013-01-11 08:19:00,30.8,28.5,30.24,WSW,257,0.0,0.0,91,0.00,,SKC,0.00,VWS V14.01,2013-01-11 16:19:00,
2013-01-11 08:24:00,31.4,29.1,30.24,WSW,257,0.0,0.0,91,0.00,,SKC,0.00,VWS V14.01,2013-01-11 16:24:00,
2013-01-11 08:29:00,31.8,29.5,30.24,WSW,257,0.0,0.0,91,0.00,,SKC,0.00,VWS V14.01,2013-01-11 16:29:00,
2013-01-11 08:34:00,32.3,29.7,30.25,WSW,257,0.0,0.0,90,0.00,,SKC,0.00,VWS V14.01,2013-01-11 16:34:00,
2013-01-11 08:39:00,32.8,30.2,30.25,WSW,257,0.0,0.0,90,0.00,,SKC,0.00,VWS V14.01,2013-01-11 16:39:00,
2013-01-11 08:44:00,33.3,31.0,30.25,WSW,257,0.0,0.0,91,0.00,,SKC,0.00,VWS V14.01,2013-01-11 16:44:00,
2013-01-11 08:49:00,33.8,31.5,30.24,WSW,257,0.0,0.0,91,0.00,,SKC,0.00,VWS V14.01,2013-01-11 16:49:00,
2013-01-11 08:54:00,34.4,31.8,30.24,WSW,257,0.0,0.0,90,0.00,,SKC,0.00,VWS V14.01,2013-01-11 16:54:00,
2013-01-11 08:59:00,34.9,32.3,30.24,WSW,257,0.0,0.0,90,0.00,,SKC,0.00,VWS V14.01,2013-01-11 16:59:00,
2013-01-11 09:04:00,35.3,32.7,30.24,WSW,257,0.0,0.0,90,0.00,,SKC,0.00,VWS V14.01,2013-01-11 17:04:00,
2013-01-11 09:09:00,35.9,33.0,30.24,WSW,257,0.0,0.0,89,0.00,,SKC,0.00,VWS V14.01,2013-01-11 17:09:00,
2013-01-11 09:14:00,36.4,33.2,30.24,WSW,257,0.0,0.0,88,0.00,,SKC,0.00,VWS V14.01,2013-01-11 17:14:00,
2013-01-11 09:19:00,37.0,33.8,30.24,WSW,257,0.0,0.0,88,0.00,,SKC,0.00,VWS V14.01,2013-01-11 17:19:00,
2013-01-11 09:24:00,37.5,33.7,30.24,WSW,257,0.0,0.0,86,0.00,,SKC,0.00,VWS V14.01,2013-01-11 17:24:00,
2013-01-11 09:29:00,38.0,33.6,30.25,WSW,257,0.0,0.0,84,0.00,,SKC,0.00,VWS V14.01,2013-01-11 17:29:00,
2013-01-11 09:34:00,38.5,33.8,30.25,WSW,257,0.0,0.0,83,0.00,,SKC,0.00,VWS V14.01,2013-01-11 17:34:00,
2013-01-11 09:39:00,39.0,33.4,30.24,WSW,257,0.0,0.0,80,0.00,,SKC,0.00,VWS V14.01,2013-01-11 17:39:00,
2013-01-11 09:44:00,39.6,33.3,30.24,WSW,257,0.0,0.0,78,0.00,,SKC,0.00,VWS V14.01,2013-01-11 17:44:00,
2013-01-11 09:49:00,40.1,33.2,30.24,WSW,257,0.0,0.0,76,0.00,,SKC,0.00,VWS V14.01,2013-01-11 17:49:00,
2013-01-11 09:54:00,40.7,33.4,30.24,WSW,257,0.0,2.0,75,0.00,,SKC,0.00,VWS V14.01,2013-01-11 17:54:00,
2013-01-11 09:59:00,41.5,33.8,30.24,WSW,257,0.0,0.0,74,0.00,,SKC,0.00,VWS V14.01,2013-01-11 17:59:00,
2013-01-11 10:04:00,42.2,34.2,30.24,WSW,257,0.0,0.0,73,0.00,,SKC,0.00,VWS V14.01,2013-01-11 18:04:00,
2013-01-11 10:09:00,43.0,33.9,30.24,WSW,257,0.0,1.0,70,0.00,,SKC,0.00,VWS V14.01,2013-01-11 18:09:00,
2013-01-11 10:14:00,43.6,34.1,30.24,WSW,256,0.0,2.0,69,0.00,,SKC,0.00,VWS V14.01,2013-01-11 18:14:00,
2013-01-11 10:19:00,43.9,34.0,30.24,SSW,195,0.0,2.0,68,0.00,,SKC,0.00,VWS V14.01,2013-01-11 18:19:00,
2013-01-11 10:24:00,44.1,33.9,30.24,SSW,196,2.0,2.0,67,0.00,,SKC,0.00,VWS V14.01,2013-01-11 18:24:00,
2013-01-11 10:29:00,44.3,33.7,30.24,SSW,196,0.0,2.0,66,0.00,,SKC,0.00,VWS V14.01,2013-01-11 18:29:00,
2013-01-11 10:34:00,44.4,34.1,30.24,South,183,0.0,3.0,67,0.00,,SKC,0.00,VWS V14.01,2013-01-11 18:34:00,
2013-01-11 10:39:00,44.5,34.2,30.23,West,281,0.0,2.0,67,0.00,,SKC,0.00,VWS V14.01,2013-01-11 18:39:00,
2013-01-11 10:44:00,44.7,34.0,30.23,SW,221,0.0,2.0,66,0.00,,SKC,0.00,VWS V14.01,2013-01-11 18:44:00,
2013-01-11 10:49:00,44.8,33.8,30.23,West,269,0.0,2.0,65,0.00,,SKC,0.00,VWS V14.01,2013-01-11 18:49:00,
2013-01-11 10:54:00,45.0,34.0,30.23,WSW,253,0.0,2.0,65,0.00,,SKC,0.00,VWS V14.01,2013-01-11 18:54:00,
2013-01-11 10:59:00,45.0,34.0,30.22,South,185,4.0,5.0,65,0.00,,SKC,0.00,VWS V14.01,2013-01-11 18:59:00,
2013-01-11 11:04:00,44.9,33.5,30.22,West,265,0.0,5.0,64,0.00,,SKC,0.00,VWS V14.01,2013-01-11 19:04:00,
2013-01-11 11:09:00,45.0,33.6,30.22,South,183,0.0,4.0,64,0.00,,SKC,0.00,VWS V14.01,2013-01-11 19:09:00,
2013-01-11 11:14:00,45.0,34.0,30.22,South,183,0.0,4.0,65,0.00,,SKC,0.00,VWS V14.01,2013-01-11 19:14:00,
2013-01-11 11:19:00,45.5,34.0,30.21,South,183,0.0,4.0,64,0.00,,SKC,0.00,VWS V14.01,2013-01-11 19:19:00,
2013-01-11 11:24:00,46.0,34.5,30.21,South,188,1.0,7.0,64,0.00,,SKC,0.00,VWS V14.01,2013-01-11 19:24:00,
2013-01-11 11:29:00,46.6,34.7,30.20,South,175,3.0,5.0,63,0.00,,SKC,0.00,VWS V14.01,2013-01-11 19:29:00,
2013-01-11 11:34:00,46.9,34.6,30.20,West,271,1.0,5.0,62,0.00,,SKC,0.00,VWS V14.01,2013-01-11 19:34:00,
2013-01-11 11:39:00,47.2,34.5,30.20,WNW,283,1.0,4.0,61,0.00,,SKC,0.00,VWS V14.01,2013-01-11 19:39:00,
2013-01-11 11:44:00,47.2,34.0,30.20,WNW,295,3.0,6.0,60,0.00,,SKC,0.00,VWS V14.01,2013-01-11 19:44:00,
2013-01-11 11:50:00,47.2,34.0,30.19,WSW,237,0.0,5.0,60,0.00,,SKC,0.00,VWS V14.01,2013-01-11 19:50:00,
2013-01-11 11:59:00,47.2,33.6,30.18,West,273,0.0,11.0,59,0.00,,SKC,0.00,VWS V14.01,2013-01-11 19:59:00,
2013-01-11 12:04:00,47.1,33.9,30.18,South,171,1.0,6.0,60,0.00,,SKC,0.00,VWS V14.01,2013-01-11 20:04:00,
2013-01-11 12:09:00,47.0,33.4,30.18,SW,227,0.0,2.0,59,0.00,,SKC,0.00,VWS V14.01,2013-01-11 20:09:00,
2013-01-11 12:14:00,46.9,33.8,30.17,SW,218,2.0,4.0,60,0.00,,SKC,0.00,VWS V14.01,2013-01-11 20:14:00,
2013-01-11 12:19:00,46.8,33.7,30.17,NW,324,0.0,6.0,60,0.00,,SKC,0.00,VWS V14.01,2013-01-11 20:19:00,
2013-01-11 12:24:00,46.8,33.7,30.17,SW,229,0.0,2.0,60,0.00,,SKC,0.00,VWS V14.01,2013-01-11 20:24:00,
2013-01-11 12:30:00,47.0,33.4,30.17,West,269,0.0,4.0,59,0.00,,SKC,0.00,VWS V14.01,2013-01-11 20:30:00,
2013-01-11 12:39:00,47.3,33.7,30.16,SW,217,0.0,6.0,59,0.00,,SKC,0.00,VWS V14.01,2013-01-11 20:39:00,
2013-01-11 12:45:00,47.4,34.6,30.16,North,5,1.0,3.0,61,0.00,,SKC,0.00,VWS V14.01,2013-01-11 20:45:00,
2013-01-11 12:54:00,48.1,34.5,30.15,South,172,0.0,4.0,59,0.00,,SKC,0.00,VWS V14.01,2013-01-11 20:54:00,
2013-01-11 12:59:00,48.3,34.2,30.15,South,185,0.0,2.0,58,0.00,,SKC,0.00,VWS V14.01,2013-01-11 20:59:00,
2013-01-11 13:04:00,48.6,34.1,30.15,West,281,0.0,6.0,57,0.00,,SKC,0.00,VWS V14.01,2013-01-11 21:04:00,
2013-01-11 13:09:00,48.5,34.0,30.15,WSW,254,2.0,5.0,57,0.00,,SKC,0.00,VWS V14.01,2013-01-11 21:09:00,
2013-01-11 13:14:00,48.4,33.9,30.15,WSW,253,1.0,7.0,57,0.00,,SKC,0.00,VWS V14.01,2013-01-11 21:14:00,
2013-01-11 13:19:00,48.4,34.3,30.15,NNW,347,4.0,9.0,58,0.00,,SKC,0.00,VWS V14.01,2013-01-11 21:19:00,
2013-01-11 13:24:00,48.4,33.9,30.15,WNW,298,0.0,7.0,57,0.00,,SKC,0.00,VWS V14.01,2013-01-11 21:24:00,
2013-01-11 13:30:00,48.4,33.4,30.15,WNW,294,0.0,8.0,56,0.00,,SKC,0.00,VWS V14.01,2013-01-11 21:30:00,
2013-01-11 13:40:00,48.6,34.1,30.14,West,262,2.0,5.0,57,0.00,,SKC,0.00,VWS V14.01,2013-01-11 21:40:00,
2013-01-11 13:50:00,48.9,33.9,30.14,South,176,0.0,7.0,56,0.00,,SKC,0.00,VWS V14.01,2013-01-11 21:50:00,
2013-01-11 13:55:00,49.1,34.5,30.14,SSW,200,4.0,4.0,57,0.00,,SKC,0.00,VWS V14.01,2013-01-11 21:55:00,
2013-01-11 14:00:00,49.2,34.2,30.14,SW,232,1.0,6.0,56,0.00,,SKC,0.00,VWS V14.01,2013-01-11 22:00:00,
2013-01-11 14:09:00,48.7,34.6,30.14,WNW,292,2.0,4.0,58,0.00,,SKC,0.00,VWS V14.01,2013-01-11 22:09:00,
2013-01-11 14:14:00,48.5,34.8,30.13,WNW,290,1.0,8.0,59,0.00,,SKC,0.00,VWS V14.01,2013-01-11 22:14:00,
2013-01-11 14:19:00,48.7,35.0,30.13,WNW,283,1.0,9.0,59,0.00,,SKC,0.00,VWS V14.01,2013-01-11 22:19:00,
2013-01-11 14:24:00,49.2,35.5,30.13,NNW,330,0.0,5.0,59,0.00,,SKC,0.00,VWS V14.01,2013-01-11 22:24:00,
2013-01-11 14:29:00,49.8,35.6,30.13,SSW,206,1.0,5.0,58,0.00,,SKC,0.00,VWS V14.01,2013-01-11 22:29:00,
2013-01-11 14:34:00,50.3,35.7,30.13,WSW,240,1.0,4.0,57,0.00,,SKC,0.00,VWS V14.01,2013-01-11 22:34:00,
2013-01-11 14:39:00,50.4,35.3,30.13,SW,232,0.0,5.0,56,0.00,,SKC,0.00,VWS V14.01,2013-01-11 22:39:00,
2013-01-11 14:44:00,50.2,35.6,30.13,WSW,256,0.0,3.0,57,0.00,,SKC,0.00,VWS V14.01,2013-01-11 22:44:00,
2013-01-11 14:49:00,50.3,35.7,30.12,South,171,2.0,5.0,57,0.00,,SKC,0.00,VWS V14.01,2013-01-11 22:49:00,
2013-01-11 14:55:00,50.3,36.1,30.12,South,187,7.0,7.0,58,0.00,,SKC,0.00,VWS V14.01,2013-01-11 22:55:00,
2013-01-11 15:04:00,50.4,35.8,30.12,WSW,240,0.0,5.0,57,0.00,,SKC,0.00,VWS V14.01,2013-01-11 23:04:00,
2013-01-11 15:09:00,50.5,36.3,30.12,WNW,297,4.0,8.0,58,0.00,,SKC,0.00,VWS V14.01,2013-01-11 23:09:00,
2013-01-11 15:14:00,50.5,36.3,30.12,SSE,156,4.0,7.0,58,0.00,,SKC,0.00,VWS V14.01,2013-01-11 23:14:00,
2013-01-11 15:19:00,50.4,36.2,30.12,SSW,194,1.0,4.0,58,0.00,,SKC,0.00,VWS V14.01,2013-01-11 23:19:00,
2013-01-11 15:24:00,50.5,35.8,30.12,South,175,0.0,4.0,57,0.00,,SKC,0.00,VWS V14.01,2013-01-11 23:24:00,
2013-01-11 15:29:00,50.6,36.4,30.12,WSW,256,0.0,2.0,58,0.00,,SKC,0.00,VWS V14.01,2013-01-11 23:29:00,
2013-01-11 15:35:00,50.5,36.7,30.12,West,264,0.0,3.0,59,0.00,,SKC,0.00,VWS V14.01,2013-01-11 23:35:00,
2013-01-11 15:44:00,50.0,36.7,30.12,SSW,202,0.0,4.0,60,0.00,,SKC,0.00,VWS V14.01,2013-01-11 23:44:00,
2013-01-11 15:49:00,49.5,36.6,30.12,NNW,343,0.0,3.0,61,0.00,,SKC,0.00,VWS V14.01,2013-01-11 23:49:00,
2013-01-11 15:55:00,49.0,36.6,30.12,WNW,296,2.0,4.0,62,0.00,,SKC,0.00,VWS V14.01,2013-01-11 23:55:00,
2013-01-11 16:04:00,48.4,36.8,30.12,West,280,0.0,0.0,64,0.00,,SKC,0.00,VWS V14.01,2013-01-12 00:04:00,
2013-01-11 16:09:00,48.4,37.2,30.12,West,280,0.0,0.0,65,0.00,,SKC,0.00,VWS V14.01,2013-01-12 00:09:00,
2013-01-11 16:14:00,48.3,37.1,30.12,WSW,251,0.0,3.0,65,0.00,,SKC,0.00,VWS V14.01,2013-01-12 00:14:00,
2013-01-11 16:20:00,48.3,37.5,30.12,WNW,298,1.0,5.0,66,0.00,,SKC,0.00,VWS V14.01,2013-01-12 00:20:00,
2013-01-11 16:29:00,48.1,38.0,30.12,WNW,288,0.0,3.0,68,0.00,,SKC,0.00,VWS V14.01,2013-01-12 00:29:00,
2013-01-11 16:35:00,47.9,37.9,30.12,WNW,289,0.0,4.0,68,0.00,,SKC,0.00,VWS V14.01,2013-01-12 00:35:00,
2013-01-11 16:40:00,47.9,37.9,30.12,WNW,291,0.0,4.0,68,0.00,,SKC,0.00,VWS V14.01,2013-01-12 00:40:00,
2013-01-11 16:45:00,47.8,38.1,30.11,WNW,291,0.0,1.0,69,0.00,,SKC,0.00,VWS V14.01,2013-01-12 00:45:00,
2013-01-11 16:50:00,47.8,38.1,30.11,NW,322,0.0,2.0,69,0.00,,SKC,0.00,VWS V14.01,2013-01-12 00:50:00,
2013-01-11 16:55:00,47.7,38.4,30.11,NW,322,0.0,1.0,70,0.00,,SKC,0.00,VWS V14.01,2013-01-12 00:55:00,
2013-01-11 17:00:00,47.5,38.6,30.11,NW,322,0.0,0.0,71,0.00,,SKC,0.00,VWS V14.01,2013-01-12 01:00:00,
2013-01-11 17:05:00,47.3,38.4,30.11,NW,321,0.0,2.0,71,0.00,,SKC,0.00,VWS V14.01,2013-01-12 01:05:00,
2013-01-11 17:10:00,47.1,38.2,30.11,NW,321,0.0,0.0,71,0.00,,SKC,0.00,VWS V14.01,2013-01-12 01:10:00,
2013-01-11 17:20:00,46.5,38.0,30.11,NW,321,0.0,0.0,72,0.00,,SKC,0.00,VWS V14.01,2013-01-12 01:20:00,
2013-01-11 17:30:00,45.8,38.3,30.11,NW,321,0.0,0.0,75,0.00,,SKC,0.00,VWS V14.01,2013-01-12 01:30:00,
2013-01-11 17:35:00,45.1,37.3,30.11,NW,321,0.0,0.0,74,0.00,,SKC,0.00,VWS V14.01,2013-01-12 01:35:00,
2013-01-11 17:44:00,43.1,36.7,30.12,NW,321,0.0,0.0,78,0.00,,SKC,0.00,VWS V14.01,2013-01-12 01:44:00,
2013-01-11 17:49:00,42.2,36.2,30.12,NW,322,0.0,0.0,79,0.00,,SKC,0.00,VWS V14.01,2013-01-12 01:49:00,
2013-01-11 17:54:00,41.8,36.1,30.12,NW,321,0.0,0.0,80,0.00,,SKC,0.00,VWS V14.01,2013-01-12 01:54:00,
2013-01-11 18:00:00,41.4,36.0,30.12,NW,321,0.0,0.0,81,0.00,,SKC,0.00,VWS V14.01,2013-01-12 02:00:00,
2013-01-11 18:05:00,41.2,36.1,30.12,NW,322,0.0,0.0,82,0.00,,SKC,0.00,VWS V14.01,2013-01-12 02:05:00,
2013-01-11 18:15:00,40.9,36.1,30.12,NW,321,0.0,0.0,83,0.00,,SKC,0.00,VWS V14.01,2013-01-12 02:15:00,
2013-01-11 18:20:00,40.7,36.2,30.12,NW,322,0.0,0.0,84,0.00,,SKC,0.00,VWS V14.01,2013-01-12 02:20:00,
2013-01-11 18:29:00,39.8,35.4,30.12,NW,321,0.0,0.0,84,0.00,,SKC,0.00,VWS V14.01,2013-01-12 02:29:00,
2013-01-11 18:39:00,39.0,34.9,30.12,NW,321,0.0,0.0,85,0.00,,SKC,0.00,VWS V14.01,2013-01-12 02:39:00,
2013-01-11 18:45:00,38.8,35.0,30.12,NW,322,0.0,0.0,86,0.00,,SKC,0.00,VWS V14.01,2013-01-12 02:45:00,
2013-01-11 18:55:00,38.3,34.5,30.12,NW,322,0.0,0.0,86,0.00,,SKC,0.00,VWS V14.01,2013-01-12 02:55:00,
2013-01-11 19:00:00,38.3,34.8,30.12,NW,322,0.0,0.0,87,0.00,,SKC,0.00,VWS V14.01,2013-01-12 03:00:00,
2013-01-11 19:05:00,38.2,34.7,30.12,NW,322,0.0,0.0,87,0.00,,SKC,0.00,VWS V14.01,2013-01-12 03:05:00,
2013-01-11 19:10:00,38.2,34.7,30.13,NW,322,0.0,0.0,87,0.00,,SKC,0.00,VWS V14.01,2013-01-12 03:10:00,
2013-01-11 19:15:00,38.2,35.0,30.12,NW,322,0.0,0.0,88,0.00,,SKC,0.00,VWS V14.01,2013-01-12 03:15:00,
2013-01-11 19:24:00,38.6,35.6,30.12,NW,322,0.0,0.0,89,0.00,,SKC,0.00,VWS V14.01,2013-01-12 03:24:00,
2013-01-11 19:29:00,38.8,35.8,30.12,NW,322,0.0,0.0,89,0.00,,SKC,0.00,VWS V14.01,2013-01-12 03:29:00,
2013-01-11 19:35:00,39.0,36.0,30.12,NW,322,0.0,0.0,89,0.00,,SKC,0.00,VWS V14.01,2013-01-12 03:35:00,
2013-01-11 19:40:00,39.3,36.3,30.12,NW,322,0.0,0.0,89,0.00,,SKC,0.00,VWS V14.01,2013-01-12 03:40:00,
2013-01-11 19:50:00,39.8,37.1,30.13,NW,321,0.0,0.0,90,0.00,,SKC,0.00,VWS V14.01,2013-01-12 03:50:00,
2013-01-11 19:59:00,40.8,38.4,30.14,NNE,24,4.0,5.0,91,0.00,,SKC,0.00,VWS V14.01,2013-01-12 03:59:00,
2013-01-11 20:05:00,41.2,38.5,30.14,NNE,29,4.0,7.0,90,0.01,,SKC,0.01,VWS V14.01,2013-01-12 04:05:00,
2013-01-11 20:10:00,40.6,37.6,30.13,ENE,64,0.0,6.0,89,0.02,,SKC,0.02,VWS V14.01,2013-01-12 04:10:00,
2013-01-11 20:15:00,40.3,37.3,30.13,ENE,78,2.0,6.0,89,0.03,,SKC,0.03,VWS V14.01,2013-01-12 04:15:00,
2013-01-11 20:25:00,39.7,36.7,30.14,SE,139,8.0,8.0,89,0.03,,SKC,0.03,VWS V14.01,2013-01-12 04:25:00,
2013-01-11 20:34:00,39.1,36.4,30.14,SE,145,7.0,7.0,90,0.03,,SKC,0.03,VWS V14.01,2013-01-12 04:34:00,
2013-01-11 20:40:00,38.9,36.2,30.14,SE,128,1.0,7.0,90,0.03,,SKC,0.03,VWS V14.01,2013-01-12 04:40:00,
2013-01-11 20:45:00,38.7,35.7,30.14,East,87,0.0,4.0,89,0.03,,SKC,0.03,VWS V14.01,2013-01-12 04:45:00,
2013-01-11 20:50:00,38.6,35.9,30.14,ENE,74,1.0,2.0,90,0.03,,SKC,0.03,VWS V14.01,2013-01-12 04:50:00,
2013-01-11 21:00:00,38.2,35.5,30.14,ENE,74,0.0,4.0,90,0.03,,SKC,0.03,VWS V14.01,2013-01-12 05:00:00,
2013-01-11 21:04:00,38.0,35.3,30.14,ENE,74,0.0,2.0,90,0.03,,SKC,0.03,VWS V14.01,2013-01-12 05:04:00,
2013-01-11 21:10:00,37.7,35.0,30.14,ENE,74,0.0,0.0,90,0.02,,SKC,0.03,VWS V14.01,2013-01-12 05:10:00,
2013-01-11 21:14:00,37.5,35.1,30.14,ENE,74,0.0,0.0,91,0.01,,SKC,0.03,VWS V14.01,2013-01-12 05:14:00,
2013-01-11 21:20:00,37.2,34.8,30.14,ENE,74,0.0,0.0,91,0.00,,SKC,0.03,VWS V14.01,2013-01-12 05:20:00,
2013-01-11 21:25:00,36.9,34.5,30.14,ENE,74,0.0,1.0,91,0.00,,SKC,0.03,VWS V14.01,2013-01-12 05:25:00,
2013-01-11 21:35:00,36.5,34.4,30.15,ENE,74,0.0,0.0,92,0.00,,SKC,0.03,VWS V14.01,2013-01-12 05:35:00,
2013-01-11 21:40:00,36.5,34.4,30.14,ENE,74,1.0,2.0,92,0.00,,SKC,0.03,VWS V14.01,2013-01-12 05:40:00,
2013-01-11 21:44:00,36.4,34.3,30.15,ENE,74,0.0,1.0,92,0.00,,SKC,0.03,VWS V14.01,2013-01-12 05:44:00,
2013-01-11 21:50:00,36.2,34.1,30.15,ENE,74,0.0,0.0,92,0.00,,SKC,0.03,VWS V14.01,2013-01-12 05:50:00,
2013-01-11 21:59:00,35.7,33.6,30.15,ENE,74,0.0,0.0,92,0.00,,SKC,0.03,VWS V14.01,2013-01-12 05:59:00,
2013-01-11 22:05:00,35.3,33.2,30.15,ENE,74,0.0,1.0,92,0.00,,SKC,0.03,VWS V14.01,2013-01-12 06:05:00,
2013-01-11 22:10:00,35.0,32.9,30.15,ENE,74,0.0,0.0,92,0.00,,SKC,0.03,VWS V14.01,2013-01-12 06:10:00,
2013-01-11 22:15:00,34.8,32.7,30.16,ENE,74,0.0,0.0,92,0.00,,SKC,0.03,VWS V14.01,2013-01-12 06:15:00,
2013-01-11 22:20:00,34.7,32.9,30.16,ENE,74,0.0,0.0,93,0.00,,SKC,0.03,VWS V14.01,2013-01-12 06:20:00,
2013-01-11 22:25:00,34.4,32.6,30.16,ENE,74,0.0,0.0,93,0.00,,SKC,0.03,VWS V14.01,2013-01-12 06:25:00,
2013-01-11 22:30:00,34.4,32.6,30.16,ENE,74,0.0,0.0,93,0.00,,SKC,0.03,VWS V14.01,2013-01-12 06:30:00,
2013-01-11 22:35:00,34.7,32.9,30.16,ENE,74,0.0,1.0,93,0.00,,SKC,0.03,VWS V14.01,2013-01-12 06:35:00,
2013-01-11 22:40:00,34.8,33.0,30.16,ENE,74,0.0,0.0,93,0.00,,SKC,0.03,VWS V14.01,2013-01-12 06:40:00,
2013-01-11 22:45:00,34.7,32.9,30.16,ENE,74,0.0,0.0,93,0.00,,SKC,0.03,VWS V14.01,2013-01-12 06:45:00,
2013-01-11 22:50:00,34.4,32.6,30.16,ENE,74,0.0,0.0,93,0.00,,SKC,0.03,VWS V14.01,2013-01-12 06:50:00,
2013-01-11 22:55:00,34.4,32.6,30.16,ENE,74,0.0,0.0,93,0.00,,SKC,0.03,VWS V14.01,2013-01-12 06:55:00,
2013-01-11 23:00:00,34.4,32.6,30.16,ENE,74,0.0,0.0,93,0.00,,SKC,0.03,VWS V14.01,2013-01-12 07:00:00,
2013-01-11 23:10:00,34.3,32.8,30.16,ENE,74,0.0,0.0,94,0.00,,SKC,0.03,VWS V14.01,2013-01-12 07:10:00,
2013-01-11 23:15:00,34.1,32.3,30.16,ENE,74,0.0,0.0,93,0.00,,SKC,0.03,VWS V14.01,2013-01-12 07:15:00,
2013-01-11 23:20:00,34.1,32.6,30.17,ENE,74,0.0,0.0,94,0.00,,SKC,0.03,VWS V14.01,2013-01-12 07:20:00,
2013-01-11 23:25:00,34.4,32.9,30.17,ENE,74,0.0,0.0,94,0.00,,SKC,0.03,VWS V14.01,2013-01-12 07:25:00,
2013-01-11 23:30:00,34.4,32.9,30.17,ENE,74,0.0,0.0,94,0.00,,SKC,0.03,VWS V14.01,2013-01-12 07:30:00,
2013-01-11 23:35:00,34.4,32.9,30.17,ENE,74,0.0,0.0,94,0.00,,SKC,0.03,VWS V14.01,2013-01-12 07:35:00,
2013-01-11 23:44:00,34.1,32.6,30.17,ENE,74,0.0,0.0,94,0.00,,SKC,0.03,VWS V14.01,2013-01-12 07:44:00,
2013-01-11 23:49:00,33.9,32.4,30.17,ENE,74,0.0,1.0,94,0.00,,SKC,0.03,VWS V14.01,2013-01-12 07:49:00,
2013-01-11 23:54:00,33.8,32.3,30.17,ENE,74,0.0,0.0,94,0.00,,SKC,0.03,VWS V14.01,2013-01-12 07:54:00,